»·PEaware :: UAL460 KBOI-KSEA

UAL460 :: KBOI-KSEA

FLIGHT INFORMATION

Flight Status: Arrived
Operator:
United Airlines
More flights by this operator :: More flights under this callsign
Pilot: Brandon F. (14792)
Aircraft: Unknown
(A359)
More flights by this aircraft type
Origin: KBOI Boise Air Terminal/Gowen
United States
Destination: KSEA Seattle-Tacoma Intl
United States
More flights between these airports :: More routes between these airports
Route: +BOI3 LICKS PREIS PDT CHINS3
File this flight plan on PilotEdge
Remarks:
Altitude:
(Current/Filed)
36,000ft
Speed:
(Current/Filed)
508kts
Departed: 22-Jan-19 07:19 PM
Arrived: 22-Jan-19 08:35 PM
Distance/Time
Traveled:
345nm/1:16
Distance/Time
To Go:
Arrived

Flight Plot

Page will automatically refresh every two minutes.

Flight plan parsing failed; only flown route is shown


Map Options




Map Legend


Flown Route
Filed Route
Departure Airport
Arrival Airport
Navaid (VOR, NDB)
Fix

Horizontal Profiles

Position Reports

Time Latitude Longitude Heading Altitude Ground
Speed
22-Jan-19 18:53 43.567282 -116.221280 24 2857ft 0kts
22-Jan-19 18:54 43.567282 -116.221280 24 2857ft 0kts
22-Jan-19 18:55 43.567282 -116.221280 24 2857ft 0kts
22-Jan-19 18:56 43.567282 -116.221280 24 2857ft 0kts
22-Jan-19 18:57 43.567282 -116.221280 24 2857ft 0kts
22-Jan-19 18:58 43.567282 -116.221280 24 2857ft 0kts
22-Jan-19 18:59 43.567282 -116.221280 24 2857ft 0kts
22-Jan-19 19:01 43.567282 -116.221280 24 2857ft 0kts
22-Jan-19 19:01 43.567282 -116.221280 24 2857ft 0kts
22-Jan-19 19:02 43.567282 -116.221280 24 2857ft 0kts
22-Jan-19 19:03 43.567282 -116.221280 24 2857ft 0kts
22-Jan-19 19:04 43.567282 -116.221280 24 2857ft 0kts
22-Jan-19 19:05 43.567282 -116.221280 24 2857ft 0kts
22-Jan-19 19:06 43.567282 -116.221280 24 2857ft 0kts
22-Jan-19 19:07 43.567282 -116.221280 24 2857ft 0kts
22-Jan-19 19:08 43.567282 -116.221280 24 2857ft 0kts
22-Jan-19 19:09 43.567282 -116.221280 24 2857ft 0kts
22-Jan-19 19:10 43.567018 -116.221442 24 2858ft 3kts
22-Jan-19 19:11 43.566181 -116.221438 305 2858ft 3kts
22-Jan-19 19:12 43.566060 -116.221146 295 2858ft 0kts
22-Jan-19 19:13 43.566060 -116.221146 295 2858ft 0kts
22-Jan-19 19:14 43.566060 -116.221146 295 2858ft 0kts
22-Jan-19 19:15 43.567157 -116.224532 295 2854ft 27kts
22-Jan-19 19:16 43.570579 -116.234458 294 2838ft 19kts
22-Jan-19 19:17 43.570607 -116.236387 210 2835ft 9kts
22-Jan-19 19:18 43.562636 -116.214236 115 3027ft 191kts
22-Jan-19 19:19 43.528142 -116.130932 112 6081ft 277kts
22-Jan-19 19:20 43.532241 -116.038300 30 10126ft 266kts
22-Jan-19 19:21 43.595281 -116.059822 316 13679ft 258kts
22-Jan-19 19:22 43.649359 -116.127539 317 16326ft 284kts
22-Jan-19 19:23 43.708555 -116.201468 317 19552ft 292kts
22-Jan-19 19:24 43.769128 -116.277279 318 22668ft 297kts
22-Jan-19 19:25 43.830766 -116.354630 318 25504ft 303kts
22-Jan-19 19:26 43.893690 -116.433822 319 28082ft 309kts
22-Jan-19 19:27 43.957499 -116.514376 319 30408ft 315kts
22-Jan-19 19:28 44.023054 -116.597386 319 32527ft 321kts
22-Jan-19 19:29 44.089651 -116.682162 319 34348ft 329kts
22-Jan-19 19:30 44.160294 -116.755758 323 34466ft 328kts
22-Jan-19 19:31 44.229248 -116.845881 318 34477ft 366kts
22-Jan-19 19:32 44.306734 -116.951851 317 34477ft 402kts
22-Jan-19 19:33 44.386511 -117.061849 316 34478ft 403kts
22-Jan-19 19:34 44.466042 -117.171928 316 34476ft 405kts
22-Jan-19 19:35 44.524460 -117.253122 316 34456ft 405kts
22-Jan-19 19:36 44.592893 -117.348528 316 34424ft 405kts
22-Jan-19 19:37 44.672132 -117.459415 316 34395ft 405kts
22-Jan-19 19:38 44.751101 -117.570378 316 34388ft 405kts
22-Jan-19 19:39 44.830352 -117.682337 315 34363ft 404kts
22-Jan-19 19:40 44.909446 -117.794786 315 34387ft 405kts
22-Jan-19 19:41 44.988231 -117.906924 315 34387ft 404kts
22-Jan-19 19:42 45.066329 -118.018415 314 34387ft 399kts
22-Jan-19 19:43 45.143641 -118.128906 314 34375ft 395kts
22-Jan-19 19:44 45.220665 -118.239566 313 34387ft 395kts
22-Jan-19 19:45 45.297837 -118.351130 313 34387ft 395kts
22-Jan-19 19:46 45.374847 -118.462983 314 34379ft 398kts
22-Jan-19 19:47 45.451888 -118.575335 313 34367ft 398kts
22-Jan-19 19:48 45.527895 -118.686855 313 33568ft 392kts
22-Jan-19 19:50 45.604332 -118.799581 312 32284ft 395kts
22-Jan-19 19:51 45.681307 -118.913332 312 31148ft 402kts
22-Jan-19 19:52 45.756335 -119.035210 308 30236ft 415kts
22-Jan-19 19:53 45.830247 -119.160917 308 29287ft 411kts
22-Jan-19 19:54 45.903777 -119.285941 308 28299ft 407kts
22-Jan-19 19:55 45.976216 -119.409585 308 27313ft 402kts
22-Jan-19 19:56 46.047856 -119.532367 308 26327ft 398kts
22-Jan-19 19:57 46.118463 -119.653782 307 25261ft 394kts
22-Jan-19 19:58 46.188290 -119.774487 307 24215ft 390kts
22-Jan-19 19:59 46.257153 -119.894029 307 23230ft 386kts
22-Jan-19 20:00 46.325344 -120.012854 307 22242ft 382kts
22-Jan-19 20:01 46.392639 -120.130628 307 21370ft 379kts
22-Jan-19 20:02 46.459290 -120.247905 307 20598ft 376kts
22-Jan-19 20:03 46.525466 -120.364944 306 19909ft 374kts
22-Jan-19 20:04 46.589584 -120.482683 303 19222ft 370kts
22-Jan-19 20:05 46.647505 -120.605343 302 18536ft 368kts
22-Jan-19 20:06 46.705378 -120.727563 302 17790ft 369kts
22-Jan-19 20:07 46.763439 -120.850312 302 17103ft 367kts
22-Jan-19 20:08 46.820548 -120.971423 302 16421ft 365kts
22-Jan-19 20:09 46.877671 -121.092861 301 16078ft 360kts
22-Jan-19 20:09 46.924784 -121.193527 300 16064ft 363kts
22-Jan-19 20:10 46.980744 -121.313546 299 16055ft 327kts
22-Jan-19 20:11 47.028598 -121.416941 299 16039ft 305kts
22-Jan-19 20:12 47.076739 -121.521191 299 16028ft 308kts
22-Jan-19 20:13 47.124800 -121.625086 299 15316ft 307kts
22-Jan-19 20:14 47.172323 -121.728733 299 14387ft 305kts
22-Jan-19 20:15 47.219424 -121.831827 299 13496ft 304kts
22-Jan-19 20:17 47.274111 -121.951864 299 12457ft 302kts
22-Jan-19 20:17 47.312365 -122.036203 299 12073ft 283kts
22-Jan-19 20:18 47.355294 -122.131243 299 12075ft 278kts
22-Jan-19 20:19 47.428374 -122.162632 358 12076ft 302kts
22-Jan-19 20:20 47.510215 -122.156639 358 11355ft 289kts
22-Jan-19 20:21 47.587617 -122.152148 358 9798ft 269kts
22-Jan-19 20:22 47.659922 -122.149873 358 8169ft 251kts
22-Jan-19 20:23 47.727280 -122.149890 358 6465ft 236kts
22-Jan-19 20:24 47.778329 -122.182019 277 4943ft 211kts
22-Jan-19 20:25 47.771816 -122.254815 201 4068ft 160kts
22-Jan-19 20:26 47.730754 -122.280966 200 4058ft 159kts
22-Jan-19 20:27 47.692564 -122.302763 187 4069ft 145kts
22-Jan-19 20:28 47.652244 -122.305718 180 4061ft 142kts
22-Jan-19 20:29 47.613005 -122.306609 179 3347ft 141kts
22-Jan-19 20:30 47.573723 -122.306984 179 2597ft 140kts
22-Jan-19 20:31 47.534660 -122.307258 179 1849ft 140kts
22-Jan-19 20:32 47.495663 -122.307533 179 1101ft 139kts
22-Jan-19 20:33 47.458478 -122.307898 179 442ft 122kts
22-Jan-19 20:34 47.446178 -122.307625 149 400ft 17kts
22-Jan-19 20:35 47.445051 -122.306031 196 398ft 10kts
22-Jan-19 20:36 47.440223 -122.306280 162 382ft 12kts
22-Jan-19 20:37 47.439519 -122.302616 153 383ft 3kts

Navigation Log

Ident Type
Flight plan parsing failed, navigation log unavailable